• Join FlightAware (Why Join?)
  • Login
  • US Flag 
01:08AM EDT


 

Airport Tracker/Info


-or-


 

Live Flight TrackerFlight Track Log ✈ N755CC ✈ 05-Oct-2013 ✈ KALB - KALB

Flight Track Log - Related Links

Times and Time Zones

All times are in EDT time to prevent confusion due to time zone crossing. See the N755CC flight status page for this flight to view local times or setup timezone preferences in your user account.

Time Position Orientation Groundspeed Altitude Reporting Facility
EDT Latitude Longitude Course Direction KTS MPH feet Rate Location/Type
03:43PM 42.7653 -73.8089 359° North 91 105 900  Level Boston Center
03:44PM 42.7778 -73.8092 359° North 88 101 1,400 780 Climbing Boston Center
03:45PM 42.7989 -73.7928 30° Northeast 96 110 2,100 720 Climbing Boston Center
03:46PM 42.8178 -73.7675 44° Northeast 101 116 2,800 660 Climbing Boston Center
03:47PM 42.8431 -73.7428 36° Northeast 111 128 3,400 540 Climbing Boston Center
03:48PM 42.8683 -73.7147 39° Northeast 116 133 4,000 240 Climbing Boston Center
03:49PM 42.8939 -73.6786 46° Northeast 124 143 4,000  Level Boston Center
03:50PM 42.9233 -73.6508 35° Northeast 136 157 4,100  Climbing Boston Center
03:51PM 42.9486 -73.6117 49° Northeast 133 153 4,000 -60 Descending Boston Center
03:52PM 42.9761 -73.5808 39° Northeast 131 151 4,000  Level Boston Center
03:53PM 43.0014 -73.5500 42° Northeast 123 142 4,000 -240 Level Boston Center
03:54PM 42.9914 -73.5044 107° East 125 144 3,600 -300 Descending Boston Center
03:55PM 42.9753 -73.4644 119° Southeast 122 140 3,400 -300 Descending Boston Center
03:56PM 42.9608 -73.4275 118° Southeast 112 129 3,100 -420 Descending Boston Center
03:57PM 42.9444 -73.3903 121° Southeast 113 130 2,600 -360 Descending Boston Center
03:58PM 42.9325 -73.3503 112° Southeast 105 121 2,400 -300 Descending Boston Center
03:59PM 42.9181 -73.3189 122° Southeast 98 113 2,100 -180 Descending Boston Center
04:00PM 42.9036 -73.2875 122° Southeast 94 108 2,100 60 Level Boston Center
04:01PM 42.8936 -73.2561 113° Southeast 86 99 2,300 360 Climbing Boston Center
04:02PM 42.9061 -73.2339 52° Northeast 102 117 2,900 660 Climbing Boston Center
04:03PM 42.9142 -73.2622 291° West 84 97 3,700 600 Climbing Boston Center
04:04PM 42.9267 -73.2936 299° West 92 106 4,100 180 Climbing Boston Center
04:05PM 42.9428 -73.3364 297° West 119 137 4,100  Level Boston Center
04:06PM 42.9572 -73.3764 296° West 118 136 4,100  Level Boston Center
04:07PM 42.9714 -73.4161 296° West 116 133 4,100  Level Boston Center
04:08PM 42.9814 -73.4617 287° West 116 133 4,100  Level Boston Center
04:09PM 42.9978 -73.5103 295° West 120 138 4,100  Level Boston Center
04:10PM 43.0078 -73.5503 289° West 120 138 4,100  Level Boston Center
04:11PM 43.0114 -73.5928 277° West 118 136 4,100  Level Boston Center
04:12PM 43.0258 -73.6272 300° West 122 140 4,100  Level Boston Center
04:13PM 43.0344 -73.5878 73° East 145 167 4,100  Level Boston Center
04:14PM 43.0078 -73.5389 127° Southeast 143 165 4,100  Level Boston Center
04:15PM 42.9894 -73.4958 120° Southeast 141 162 4,100  Level Boston Center
04:16PM 42.9692 -73.4503 121° Southeast 142 163 4,100 -300 Level Boston Center
04:17PM 42.9506 -73.4044 119° Southeast 129 148 3,600 -660 Descending Boston Center
04:18PM 42.9364 -73.3617 114° Southeast 126 145 2,800 -780 Descending Boston Center
04:19PM 42.9222 -73.3247 118° Southeast 118 136 2,200 -420 Descending Boston Center
04:20PM 42.9058 -73.2933 125° Southeast 96 110 2,100 -60 Descending Boston Center
04:21PM 42.8956 -73.2619 114° Southeast 94 108 2,100 240 Level Boston Center
04:22PM 42.9019 -73.2364 71° East 98 113 2,700 600 Climbing Boston Center